CSH6 weather

Montreal / Les Cèdres Heliport
Montréal, Quebec, Canada

Public forecast

Using degrees Celsius for public forecast. Weather courtesy of forecast.io.

METAR (pilot weather report)

Closest report is Montreal / Pierre Elliott Trudeau International Airport, 16.4 nm (30.3 km) ENE. Retrieved 2019/05/24 06:00 UTC (17 minutes ago):

CYUL 240600Z 01009KT 15SM -DZ BKN006 OVC020 12/11 A2964 RMK SF7SC1 SLP038 DENSITY ALT 200FT

TAF (pilot weather forecast)

Closest forecast is Montreal / Pierre Elliott Trudeau International Airport, 16.4 nm (30.3 km) ENE. Retrieved 2019/05/24 06:42 UTC (0 seconds ago):

TAF TAF CYUL 240538Z 2406/2506 33006KT 5SM -SHRA BR BKN006 OVC020 TEMPO 2406/2409 P6SM NSW SCT006 BKN025 OVC100 FM240900 36010KT P6SM BKN025 OVC040 TEMPO 2409/2414 P6SM -SHRA OVC020 BECMG 2415/2416 01010G20KT FM242100 05012KT P6SM BKN040 BECMG 2423/2501 07007KT FM250300 15005KT P6SM SCT040 RMK NXT FCST BY 240900Z